createdAt,value
2022-09-14T00:00:44.103Z,15.47
2022-09-14T00:06:13.344Z,15.46
2022-09-14T00:11:41.529Z,15.42
2022-09-14T00:17:07.487Z,15.39
2022-09-14T00:22:27.629Z,15.42
2022-09-14T00:27:55.531Z,15.42
2022-09-14T00:33:15.783Z,15.37
2022-09-14T00:38:33.102Z,15.33
2022-09-14T00:43:58.391Z,15.27
2022-09-14T00:49:23.754Z,15.24
2022-09-14T00:54:53.649Z,15.20
2022-09-14T01:00:24.047Z,15.17
2022-09-14T01:05:56.055Z,15.11
2022-09-14T01:11:38.589Z,15.01
2022-09-14T01:16:57.265Z,14.97
2022-09-14T01:22:33.216Z,14.96
2022-09-14T01:28:03.159Z,14.97
2022-09-14T01:33:35.276Z,14.94
2022-09-14T01:39:03.955Z,14.89
2022-09-14T01:44:58.319Z,14.87
2022-09-14T01:50:34.316Z,14.78
2022-09-14T01:56:06.813Z,14.75
2022-09-14T02:01:33.074Z,14.70
2022-09-14T02:06:51.408Z,14.62
2022-09-14T02:12:17.726Z,14.54
2022-09-14T02:17:28.211Z,14.49
2022-09-14T02:22:49.174Z,14.48
2022-09-14T02:28:17.019Z,14.48
2022-09-14T02:33:53.153Z,14.51
2022-09-14T02:39:52.894Z,14.46
2022-09-14T02:45:29.425Z,14.40
2022-09-14T02:51:07.020Z,14.37
2022-09-14T02:56:37.481Z,14.37
2022-09-14T03:01:50.500Z,14.37
2022-09-14T03:07:08.878Z,14.40
2022-09-14T03:12:28.563Z,14.36
2022-09-14T03:17:41.204Z,14.27
2022-09-14T03:23:09.257Z,14.25
2022-09-14T03:28:37.012Z,14.28
2022-09-14T03:34:05.046Z,14.30
2022-09-14T03:39:23.028Z,14.26
2022-09-14T03:44:40.651Z,14.22
2022-09-14T03:49:59.472Z,14.19
2022-09-14T03:55:27.026Z,14.15
2022-09-14T04:00:55.110Z,14.10
2022-09-14T04:06:16.219Z,14.02
2022-09-14T04:11:44.735Z,13.96
2022-09-14T04:17:14.520Z,13.93
2022-09-14T04:22:47.799Z,13.88
2022-09-14T04:28:19.104Z,13.77
2022-09-14T04:33:39.076Z,13.73
2022-09-14T04:39:07.213Z,13.72
2022-09-14T04:44:33.384Z,13.79
2022-09-14T04:49:43.967Z,13.82
2022-09-14T04:55:06.617Z,13.78
2022-09-14T05:00:28.149Z,13.74
2022-09-14T05:05:55.762Z,13.78
2022-09-14T05:11:19.287Z,13.86
2022-09-14T05:17:11.309Z,13.94
2022-09-14T05:22:38.711Z,14.03
2022-09-14T05:28:06.710Z,14.21
2022-09-14T05:33:25.530Z,14.47
2022-09-14T05:38:48.113Z,14.73
2022-09-14T05:43:59.502Z,14.97
2022-09-14T05:49:25.883Z,15.13
2022-09-14T05:54:53.318Z,15.22
2022-09-14T06:00:00.490Z,15.31
2022-09-14T06:05:09.084Z,15.46
2022-09-14T06:10:23.148Z,15.63
2022-09-14T06:15:31.264Z,15.81
2022-09-14T06:20:57.703Z,16.03
2022-09-14T06:26:09.143Z,16.33
2022-09-14T06:31:30.446Z,16.64
2022-09-14T06:36:39.887Z,16.90
2022-09-14T06:41:56.394Z,17.17
2022-09-14T06:47:24.583Z,17.37
2022-09-14T06:52:33.938Z,17.47
2022-09-14T06:57:43.137Z,17.43
2022-09-14T07:03:02.119Z,17.31
2022-09-14T07:08:12.726Z,17.24
2022-09-14T07:13:31.202Z,17.09
2022-09-14T07:18:38.852Z,16.95
2022-09-14T07:24:01.386Z,16.84
2022-09-14T07:29:29.715Z,16.75
2022-09-14T07:34:57.302Z,16.65
2022-09-14T07:40:15.008Z,16.57
2022-09-14T07:45:38.391Z,16.46
2022-09-14T07:50:48.263Z,16.36
2022-09-14T07:55:55.743Z,16.37
2022-09-14T08:01:04.767Z,16.34
2022-09-14T08:06:14.781Z,16.31
2022-09-14T08:11:26.256Z,16.25
2022-09-14T08:16:35.909Z,16.18
2022-09-14T08:21:46.801Z,16.20
2022-09-14T08:26:55.139Z,16.29
2022-09-14T08:32:00.757Z,16.43
2022-09-14T08:37:08.078Z,16.61
2022-09-14T08:42:20.158Z,17.05
2022-09-14T08:47:31.224Z,18.52
2022-09-14T08:52:42.715Z,19.87
2022-09-14T08:57:53.647Z,20.36
2022-09-14T09:03:20.790Z,20.94
2022-09-14T09:08:38.167Z,21.24
2022-09-14T09:13:48.358Z,21.60
2022-09-14T09:19:04.128Z,21.69
2022-09-14T09:24:23.680Z,21.39
2022-09-14T09:29:33.260Z,20.85
2022-09-14T09:34:50.060Z,20.44
2022-09-14T09:40:21.212Z,20.30
2022-09-14T09:45:50.186Z,20.21
2022-09-14T09:51:05.704Z,19.80
2022-09-14T09:56:21.519Z,19.48
2022-09-14T10:01:38.533Z,19.32
2022-09-14T10:06:49.789Z,19.18
2022-09-14T10:12:04.331Z,18.90
2022-09-14T10:17:20.706Z,18.73
2022-09-14T10:22:33.063Z,18.72
2022-09-14T10:27:48.751Z,18.80
2022-09-14T10:33:00.568Z,18.82
2022-09-14T10:38:26.293Z,18.84
2022-09-14T10:43:45.380Z,18.95
2022-09-14T10:49:05.669Z,19.09
2022-09-14T10:54:27.255Z,19.14
2022-09-14T10:59:46.066Z,19.10
2022-09-14T11:05:22.076Z,19.14
2022-09-14T11:10:43.141Z,19.14
2022-09-14T11:15:59.850Z,19.14
2022-09-14T11:21:17.318Z,19.07
2022-09-14T11:26:31.807Z,18.99
2022-09-14T11:32:04.161Z,18.91
2022-09-14T11:37:18.996Z,18.96
2022-09-14T11:42:34.840Z,18.99
2022-09-14T11:47:47.736Z,18.98
2022-09-14T11:53:11.277Z,19.07
2022-09-14T11:58:23.047Z,19.23
2022-09-14T12:03:55.367Z,19.34
2022-09-14T12:14:44.789Z,19.57
2022-09-14T12:19:59.089Z,19.67
2022-09-14T12:25:22.887Z,19.75
2022-09-14T12:31:10.484Z,19.77
2022-09-14T12:37:02.595Z,19.81
2022-09-14T12:42:32.320Z,19.78
2022-09-14T12:48:01.809Z,19.83
2022-09-14T12:53:26.832Z,19.82
2022-09-14T12:58:51.180Z,19.76
2022-09-14T13:03:59.388Z,19.79
2022-09-14T13:09:15.783Z,19.82
2022-09-14T13:14:31.559Z,19.88
2022-09-14T13:19:57.319Z,19.91
2022-09-14T13:25:29.244Z,19.91
2022-09-14T13:30:37.837Z,19.86
2022-09-14T13:35:52.051Z,19.87
2022-09-14T13:41:08.968Z,19.88
2022-09-14T13:46:20.259Z,19.84
2022-09-14T13:51:35.798Z,19.86
2022-09-14T13:56:43.098Z,19.91
2022-09-14T14:01:59.365Z,19.93
2022-09-14T14:07:18.715Z,19.90
2022-09-14T14:12:33.768Z,19.86
2022-09-14T14:17:42.632Z,19.82
2022-09-14T14:23:00.955Z,19.66
2022-09-14T14:28:16.587Z,19.49
2022-09-14T14:33:24.717Z,19.34
2022-09-14T14:38:32.140Z,19.23
2022-09-14T14:43:41.657Z,19.12
2022-09-14T14:48:52.654Z,19.01
2022-09-14T14:54:21.538Z,18.94
2022-09-14T14:59:33.765Z,18.92
2022-09-14T15:05:02.571Z,18.93
2022-09-14T15:11:20.643Z,18.94
2022-09-14T15:16:52.184Z,18.93
2022-09-14T15:22:57.883Z,18.88
2022-09-14T15:28:27.270Z,18.84
2022-09-14T15:33:53.013Z,18.85
2022-09-14T15:39:49.970Z,18.88
2022-09-14T15:45:27.577Z,18.85
2022-09-14T15:51:01.507Z,18.83
2022-09-14T15:56:55.758Z,18.75
2022-09-14T16:02:21.682Z,18.64
2022-09-14T16:07:34.850Z,18.54
2022-09-14T16:13:00.530Z,18.48
2022-09-14T16:18:30.753Z,18.42
2022-09-14T16:23:58.084Z,18.34
2022-09-14T16:29:08.861Z,18.24
2022-09-14T16:34:20.433Z,18.13
2022-09-14T16:39:32.149Z,18.04
2022-09-14T16:44:45.478Z,17.92
2022-09-14T16:49:53.686Z,17.83
2022-09-14T16:55:16.240Z,17.73
2022-09-14T17:00:25.176Z,17.62
2022-09-14T17:05:34.741Z,17.48
2022-09-14T17:10:47.817Z,17.34
2022-09-14T17:16:07.324Z,17.20
2022-09-14T17:21:20.113Z,17.03
2022-09-14T17:26:29.842Z,16.89
2022-09-14T17:31:39.521Z,16.78
2022-09-14T17:38:03.914Z,16.66
2022-09-14T17:43:24.444Z,16.52
2022-09-14T17:48:40.154Z,16.39
2022-09-14T17:54:11.605Z,16.24
2022-09-14T17:59:41.611Z,16.08
2022-09-14T18:05:04.868Z,15.91
2022-09-14T18:10:30.853Z,15.77
2022-09-14T18:16:00.535Z,15.72
2022-09-14T18:21:23.487Z,15.66
2022-09-14T18:26:35.434Z,15.55
2022-09-14T18:32:04.250Z,15.41
2022-09-14T18:37:15.202Z,15.28
2022-09-14T18:42:32.104Z,15.19
2022-09-14T18:47:43.370Z,15.11
2022-09-14T18:53:08.734Z,15.05
2022-09-14T18:58:46.104Z,15.06
2022-09-14T19:03:59.758Z,15.06
2022-09-14T19:09:10.430Z,15.04
2022-09-14T19:14:36.148Z,14.97
2022-09-14T19:20:10.108Z,14.94
2022-09-14T19:25:30.148Z,14.93
2022-09-14T19:30:43.342Z,14.94
2022-09-14T19:35:53.531Z,14.94
2022-09-14T19:41:02.693Z,14.90
2022-09-14T19:46:17.594Z,14.83
2022-09-14T19:51:30.458Z,14.77
2022-09-14T19:56:41.615Z,14.69
2022-09-14T20:01:49.873Z,14.65
2022-09-14T20:06:57.814Z,14.64
2022-09-14T20:12:06.065Z,14.65
2022-09-14T20:17:33.877Z,14.65
2022-09-14T20:23:01.934Z,14.60
2022-09-14T20:28:12.558Z,14.50
2022-09-14T20:33:41.077Z,14.38
2022-09-14T20:39:06.837Z,14.34
2022-09-14T20:44:44.280Z,14.34
2022-09-14T20:50:39.543Z,14.37
2022-09-14T20:56:12.265Z,14.35
2022-09-14T21:01:32.680Z,14.26
2022-09-14T21:06:53.458Z,14.15
2022-09-14T21:12:00.940Z,14.05
2022-09-14T21:17:52.536Z,13.98
2022-09-14T21:23:06.010Z,13.93
2022-09-14T21:28:11.892Z,13.86
2022-09-14T21:33:19.295Z,13.74
2022-09-14T21:38:32.742Z,13.62
2022-09-14T21:43:49.525Z,13.52
2022-09-14T21:48:57.936Z,13.43
2022-09-14T21:54:07.870Z,13.37
2022-09-14T21:59:25.966Z,13.29
2022-09-14T22:04:38.564Z,13.19
2022-09-14T22:09:46.195Z,13.06
2022-09-14T22:14:59.445Z,12.97
2022-09-14T22:20:27.335Z,12.92
2022-09-14T22:25:34.003Z,12.89
2022-09-14T22:31:01.510Z,12.83
2022-09-14T22:36:16.995Z,12.73
2022-09-14T22:41:38.219Z,12.70
2022-09-14T22:46:46.719Z,12.70
2022-09-14T22:51:54.026Z,12.66
2022-09-14T22:57:04.766Z,12.55
2022-09-14T23:02:12.275Z,12.40
2022-09-14T23:07:21.867Z,12.30
2022-09-14T23:12:29.500Z,12.26
2022-09-14T23:17:37.131Z,12.24
2022-09-14T23:22:47.125Z,12.20
2022-09-14T23:28:14.731Z,12.17
2022-09-14T23:33:24.765Z,12.11
2022-09-14T23:38:37.035Z,12.08
2022-09-14T23:44:05.145Z,12.02
2022-09-14T23:49:23.601Z,12.00
2022-09-14T23:54:34.316Z,11.97
2022-09-14T23:59:55.071Z,11.94
